Airfield :
LOGIN :

Register | Disclaimer

   EN    FR    IT 

 










Legend :    VFR   Marginal VFR   IFR   Intensive IFR   Very Intensive IFR
Visi :
Ceiling :
>= 8 km
>= 3000ft
5 to 8 km
1000 to 3000 ft
1500m to 5 km
500 to 1000 ft
800 to 1500m
200 to 500 ft
< 800m
< 200 ft
Symbols :   Thunderstorms  Fog  Heavy snow  Heavy precipitations  Wind > 20 kt
SIGMETs :     Misc.  Thunderstorms  Icing  Turbulence  Mountain Waves  Volcanic Ashes







- Airport Elevation : 1302 ft
- IATA code : GNB
- Download approach charts


LFLS - Grenoble / St. Geoirs

CURRENT METAR :
  • 190400Z AUTO 09008KT CAVOK 00/M01 Q1022 TEMPO 2500 BR BKN008

EXPIRED METARs :
  • 190330Z AUTO 08007KT CAVOK M01/M02 Q1022 TEMPO 2500 BR BKN008
  • 190300Z AUTO 08006KT CAVOK M01/M02 Q1022 TEMPO 2500 BR BKN008
  • 190230Z AUTO 09006KT CAVOK 00/M01 Q1022 TEMPO 2500 BR BKN008
  • 190200Z AUTO 09007KT CAVOK M00/M02 Q1022
  • 190130Z AUTO 09006KT CAVOK 00/M01 Q1022

TAF TAF LFLS
Valid from the 19 at 03:00 until the 20 at 03:00 UTC


190200Z 1903/2003 09007KT CAVOK
PROB40
TEMPO 1903/1908 2500 BR
PROB30
TEMPO 1904/1909 BKN008
BECMG 1910/1913 28005KT SCT020
BECMG 1917/1919 10005KT CAVOK
ATIS : +33 4 76 65 55 89
No reported NOTAMs for that airfield.



MET'MAP, your aeronautical weather chart ! - Copyright ORBIFLY December 2007 - Disclaimer

ORBIFLY MET'MAP TEAM :

Programming & Development : Alexandra Zaïnal
Concept & Development : Baudouin d'Aumeries
Co-Development & Prog : Marc-Olivier Méhu
Technical & hardware support : Manuel Goepfert

Contact : metmap@orbifly.com




SOURCES & CREDITS :

   NOAA